This is the latest recevied weather packets stored in our database for station/object DN9EM-1. If no packets are shown the sender has not sent any weather packets the latest 10 day(s).
| Time | Temp. | Humidity | Pressure | Rain* | Wind** | Luminosity | Snow |
|---|---|---|---|---|---|---|---|
| 1777453857 | 14.44° C | 44% | 1033 hPa | 0 mm | - | - | - |
| 1777453254 | 15.56° C | 44% | 1032.8 hPa | 0 mm | - | - | - |
| 1777452645 | 14.44° C | 46% | 1032.9 hPa | 0 mm | - | - | - |
| 1777452043 | 14.44° C | 46% | 1032.9 hPa | 0 mm | - | - | - |
| 1777451434 | 14.44° C | 48% | 1032.8 hPa | 0 mm | - | - | - |
| 1777450832 | 13.33° C | 49% | 1032.9 hPa | 0 mm | - | - | - |
| 1777450229 | 13.89° C | 50% | 1032.7 hPa | 0 mm | - | - | - |
| 1777449621 | 13.33° C | 50% | 1032.7 hPa | 0 mm | - | - | - |
| 1777449018 | 12.78° C | 50% | 1032.6 hPa | 0 mm | - | - | - |
| 1777448470 | 13.33° C | 52% | 1032.6 hPa | 0 mm | - | - | - |
| 1777447867 | 13.33° C | 54% | 1032.6 hPa | 0 mm | - | - | - |
| 1777447259 | 12.78° C | 54% | 1032.7 hPa | 0 mm | - | - | - |
| 1777446657 | 13.33° C | 52% | 1032.5 hPa | 0 mm | - | - | - |
| 1777446054 | 12.22° C | 52% | 1032.6 hPa | 0 mm | - | - | - |
| 1777445446 | 11.67° C | 56% | 1032.6 hPa | 0 mm | - | - | - |
| 1777444843 | 11.11° C | 56% | 1032.4 hPa | 0 mm | - | - | - |
| 1777444235 | 11.11° C | 58% | 1032.4 hPa | 0 mm | - | - | - |
| 1777443633 | 10° C | 60% | 1032.2 hPa | 0 mm | - | - | - |
| 1777443030 | 10° C | 58% | 1032.2 hPa | 0 mm | - | - | - |
| 1777442422 | 9.44° C | 59% | 1032.1 hPa | 0 mm | - | - | - |
| 1777441819 | 9.44° C | 59% | 1031.9 hPa | 0 mm | - | - | - |
| 1777441271 | 10° C | 58% | 1031.9 hPa | 0 mm | - | - | - |
| 1777440669 | 7.78° C | 64% | 1031.8 hPa | 0 mm | - | - | - |
| 1777440066 | 7.78° C | 65% | 1031.9 hPa | 0 mm | - | - | - |
| 1777439458 | 6.67° C | 67% | 1031.7 hPa | 0 mm | - | - | - |
* Rain latest hour (hover to see other rain measurements)
** Current wind speed in m/s (hover to see current wind gust speed)